Allenhurst, New Jersey
Current Conditions -  °F | °C
As of 11:55 AM on Friday 24 Oct 2014 (Local Time) from KBLM Reporting Station
Broken Clouds Broken Clouds  
Wind Chill: 57°   Ceiling: 3200
Heat Index: 57°   Visibility: 10mi
Dew Point: 43°   Wind: 21mph
Humidity: 59%   Direction: 320°NW
Pressure: 29.82"   Gusts: 24mph
Location:  40.24°N, 74°W
Report Text: KBLM 241555Z AUTO 32018G21KT 10SM BKN032 14/06 A2982 RMK AO1
Loading
Personal Weather Stations






























Interactive Weather Map
Tropical Storm Tracking
New forecast layout! Learn more

10-Day Weather Forecast

Advertisements
Track Severe Weather on mobile